Αρχική σελίδα
METAR-TAF:

METAR-TAF

Αεροδρόμια :

Διεθνές Αεροδρόμιο Αρλάντα

Στοκχόλμη-Αρλάντα, Σουηδία

γεωγραφικό πλάτος: 59-39N, γεωγραφικό μήκος: 017-57E, υψόμετρο: 38 μ

Παρών καιρός

Η αναφορά έγινε 13 λεπτά πριν, στις 12:20 UTC
Άνεμος 13 kt από Δ/ΝΔ
Θερμοκρασία 9°C
Υγρασία 76%
Πίεση 1034 hPa
Ορατότητα 10 χλμ και άνω
Δεν υπάρχουν νέφη με βάση κάτω από τα 1500 μ. και δεν υπάρχουν νέφη σωρειτομελανίτες.

METAR: ESSA 161220Z 24013KT CAVOK 09/05 Q1034 R01L/0///95 R08/0///95 R01R/0///95 NOSIG

Χρόνος: 13:33 (12:33 UTC)

Πρόγνωση Καιρού

Η αναφορά έγινε 1 ώρα και 3 λεπτά πριν, στις 11:30 UTC
Η πρόγνωση ισχύει από τις 16 στις 12 UTC έως τις 17 στις 12 UTC
Άνεμος 10 kt από ΝΔ
Ορατότητα 10 χλμ και άνω
Λίγα νέφη σε ύψος 2000 πόδια

TAF: ESSA 161130Z 1612/1712 22010KT 9999 FEW020

Μετεωρολογικές αναφορές και προγνώσεις για περισσότερα από 4000 αεροδρόμια (δελτία METAR και TAF).

Οι διαθέσιμοι σταθμοί απεικονίζονται στο χάρτη με κίτρινες και κόκκινες κουκκίδες.

Μετακινήστε το ποντίκι πάνω από τις κουκκίδες για να δείτε το όνομα του σταθμού.

Στη συνέχεια, κάντε κλικ για να δείτε τις μετεωρολογικές αναφορές και τις προγνώσεις καιρού.

Για να αλλάξετε το χάρτη: κάντε κλικ στα πράσινα κουμπιά με τον μαύρο σταυρό για να ζουμάρετε, στο πράσινο κουμπί με την παύλα για να αφαιρέσετε το ζουμ ή στα πράσινα βέλη για να αντιπαραβάλλετε χάρτες.


METAR-TAF: